createdAt,value
2022-09-28T00:02:25.815Z,17.88
2022-09-28T00:04:52.787Z,17.76
2022-09-28T00:07:19.653Z,17.74
2022-09-28T00:09:46.551Z,17.70
2022-09-28T00:12:13.484Z,17.33
2022-09-28T00:14:40.728Z,17.26
2022-09-28T00:17:08.405Z,17.19
2022-09-28T00:19:35.366Z,17.09
2022-09-28T00:22:02.208Z,16.84
2022-09-28T00:24:30.576Z,17.05
2022-09-28T00:27:01.280Z,17.62
2022-09-28T00:29:30.091Z,17.68
2022-09-28T00:32:02.461Z,17.54
2022-09-28T00:34:32.079Z,17.15
2022-09-28T00:36:59.708Z,17.03
2022-09-28T00:39:27.229Z,17.21
2022-09-28T00:41:55.110Z,17.14
2022-09-28T00:44:24.846Z,17.03
2022-09-28T00:47:21.649Z,16.66
2022-09-28T00:50:03.138Z,16.63
2022-09-28T00:52:45.085Z,16.74
2022-09-28T00:55:28.864Z,16.55
2022-09-28T00:57:59.242Z,16.76
2022-09-28T01:00:26.339Z,16.66
2022-09-28T01:02:53.474Z,16.83
2022-09-28T01:05:22.534Z,16.82
2022-09-28T01:07:49.629Z,16.80
2022-09-28T01:10:16.731Z,16.96
2022-09-28T01:12:43.728Z,17.07
2022-09-28T01:15:11.112Z,16.82
2022-09-28T01:18:07.555Z,16.78
2022-09-28T01:20:51.367Z,16.85
2022-09-28T01:23:24.425Z,17.05
2022-09-28T01:26:25.432Z,16.99
2022-09-28T01:29:02.562Z,17.13
2022-09-28T01:31:33.221Z,17.31
2022-09-28T01:34:10.560Z,17.11
2022-09-28T01:36:44.328Z,16.90
2022-09-28T01:39:16.841Z,16.70
2022-09-28T01:41:48.321Z,16.74
2022-09-28T01:44:20.051Z,16.57
2022-09-28T01:46:50.180Z,16.49
2022-09-28T01:49:36.199Z,16.44
2022-09-28T01:52:20.574Z,16.55
2022-09-28T01:54:54.526Z,16.35
2022-09-28T01:57:33.633Z,16.55
2022-09-28T02:00:13.187Z,16.66
2022-09-28T02:02:54.038Z,16.67
2022-09-28T02:05:32.583Z,16.57
2022-09-28T02:08:20.554Z,16.22
2022-09-28T02:11:15.669Z,16.23
2022-09-28T02:13:51.037Z,15.96
2022-09-28T02:16:36.600Z,15.92
2022-09-28T02:19:04.683Z,15.89
2022-09-28T02:21:43.138Z,16.17
2022-09-28T02:24:23.357Z,16.31
2022-09-28T02:26:55.454Z,16.43
2022-09-28T02:29:23.427Z,16.49
2022-09-28T02:31:51.830Z,16.35
2022-09-28T02:34:19.737Z,16.50
2022-09-28T02:36:47.949Z,16.61
2022-09-28T02:39:17.879Z,16.67
2022-09-28T02:42:19.475Z,16.09
2022-09-28T02:45:12.869Z,15.58
2022-09-28T02:48:05.258Z,15.79
2022-09-28T02:50:51.037Z,15.97
2022-09-28T02:53:35.381Z,15.94
2022-09-28T02:56:11.802Z,16.20
2022-09-28T02:59:02.568Z,16.24
2022-09-28T03:01:48.413Z,16.33
2022-09-28T03:04:36.694Z,16.20
2022-09-28T03:07:17.934Z,16.00
2022-09-28T03:10:10.275Z,15.94
2022-09-28T03:12:39.313Z,15.87
2022-09-28T03:15:31.687Z,15.77
2022-09-28T03:18:00.331Z,15.67
2022-09-28T03:20:29.088Z,15.85
2022-09-28T03:23:22.721Z,15.89
2022-09-28T03:25:43.271Z,16.06
2022-09-28T03:28:10.173Z,16.23
2022-09-28T03:30:39.990Z,15.91
2022-09-28T03:33:07.283Z,15.89
2022-09-28T03:35:34.411Z,15.67
2022-09-28T03:38:01.278Z,15.69
2022-09-28T03:40:30.851Z,15.80
2022-09-28T03:42:57.806Z,15.84
2022-09-28T03:45:25.479Z,15.91
2022-09-28T03:47:52.951Z,16.20
2022-09-28T03:50:19.818Z,16.37
2022-09-28T03:52:48.611Z,16.58
2022-09-28T03:55:15.896Z,16.71
2022-09-28T03:57:43.081Z,16.59
2022-09-28T04:00:10.871Z,16.35
2022-09-28T04:02:40.819Z,16.41
2022-09-28T04:05:09.386Z,16.52
2022-09-28T04:07:37.858Z,16.58
2022-09-28T04:10:05.030Z,15.68
2022-09-28T04:12:32.409Z,15.58
2022-09-28T04:14:59.286Z,15.67
2022-09-28T04:17:26.282Z,15.95
2022-09-28T04:19:53.581Z,16.12
2022-09-28T04:22:39.979Z,16.04
2022-09-28T04:25:07.461Z,16.20
2022-09-28T04:27:53.485Z,16.32
2022-09-28T04:30:20.782Z,16.64
2022-09-28T04:32:47.952Z,17.04
2022-09-28T04:35:15.158Z,18.00
2022-09-28T04:37:42.109Z,18.51
2022-09-28T04:40:09.808Z,19.32
2022-09-28T04:42:37.539Z,20.28
2022-09-28T04:45:04.973Z,20.88
2022-09-28T04:47:34.995Z,21.24
2022-09-28T04:50:17.206Z,20.39
2022-09-28T04:53:02.684Z,20.90
2022-09-28T04:55:32.487Z,21.49
2022-09-28T04:58:03.419Z,22.16
2022-09-28T05:00:33.243Z,22.41
2022-09-28T05:03:07.813Z,22.72
2022-09-28T05:05:53.628Z,23.24
2022-09-28T05:08:39.509Z,23.64
2022-09-28T05:11:10.144Z,24.27
2022-09-28T05:13:45.676Z,25.04
2022-09-28T05:16:16.456Z,25.66
2022-09-28T05:19:03.625Z,26.71
2022-09-28T05:21:31.010Z,27.87
2022-09-28T05:23:58.472Z,29.00
2022-09-28T05:26:26.126Z,28.62
2022-09-28T05:28:53.193Z,28.24
2022-09-28T05:31:38.744Z,28.05
2022-09-28T05:34:08.272Z,27.77
2022-09-28T05:36:35.876Z,29.13
2022-09-28T05:39:04.140Z,31.17
2022-09-28T05:41:31.447Z,32.26
2022-09-28T05:44:00.073Z,33.76
2022-09-28T05:46:27.246Z,35.60
2022-09-28T05:48:54.578Z,35.13
2022-09-28T05:51:24.706Z,33.28
2022-09-28T05:53:55.457Z,31.59
2022-09-28T05:56:23.583Z,32.11
2022-09-28T05:58:52.331Z,31.42
2022-09-28T06:01:21.633Z,31.57
2022-09-28T06:03:49.271Z,30.89
2022-09-28T06:06:16.645Z,31.08
2022-09-28T06:08:48.484Z,31.09
2022-09-28T06:11:33.946Z,30.95
2022-09-28T06:14:07.733Z,30.63
2022-09-28T06:16:35.220Z,30.68
2022-09-28T06:19:02.621Z,32.04
2022-09-28T06:21:56.221Z,33.92
2022-09-28T06:24:25.419Z,34.79
2022-09-28T06:26:52.484Z,31.96
2022-09-28T06:29:20.376Z,32.73
2022-09-28T06:31:48.331Z,32.27
2022-09-28T06:34:15.667Z,31.54
2022-09-28T06:36:44.237Z,32.03
2022-09-28T06:39:11.231Z,32.02
2022-09-28T06:41:38.279Z,32.58
2022-09-28T06:44:14.180Z,32.44
2022-09-28T06:46:59.447Z,32.68
2022-09-28T06:49:46.242Z,33.25
2022-09-28T06:52:39.133Z,33.17
2022-09-28T06:55:33.687Z,34.21
2022-09-28T06:58:05.082Z,32.82
2022-09-28T07:00:37.072Z,32.91
2022-09-28T07:03:06.742Z,32.36
2022-09-28T07:05:54.316Z,34.38
2022-09-28T07:08:39.639Z,34.36
2022-09-28T07:11:41.972Z,35.49
2022-09-28T07:14:45.591Z,35.22
2022-09-28T07:17:14.136Z,32.17
2022-09-28T07:19:42.908Z,33.97
2022-09-28T07:22:18.561Z,35.63
2022-09-28T07:24:48.586Z,35.52
2022-09-28T07:27:59.728Z,33.56
2022-09-28T07:30:47.156Z,33.01
2022-09-28T07:33:19.075Z,32.31
2022-09-28T07:35:53.514Z,32.79
2022-09-28T07:38:22.744Z,33.33
2022-09-28T07:41:07.977Z,33.04
2022-09-28T07:43:35.963Z,34.30
2022-09-28T07:46:03.813Z,36.20
2022-09-28T07:48:36.802Z,36.02
2022-09-28T07:51:04.368Z,36.34
2022-09-28T07:53:38.711Z,35.93
2022-09-28T07:56:25.478Z,36.60
2022-09-28T07:59:04.514Z,36.36
2022-09-28T08:01:40.534Z,34.74
2022-09-28T08:04:10.175Z,34.46
2022-09-28T08:06:40.633Z,35.18
2022-09-28T08:09:09.995Z,35.12
2022-09-28T08:12:13.506Z,34.30
2022-09-28T08:14:57.618Z,34.16
2022-09-28T08:17:47.370Z,32.66
2022-09-28T08:20:35.005Z,34.19
2022-09-28T08:23:07.257Z,34.75
2022-09-28T08:25:38.959Z,34.70
2022-09-28T08:28:09.936Z,34.76
2022-09-28T08:30:45.850Z,36.21
2022-09-28T08:33:34.027Z,36.78
2022-09-28T08:36:20.802Z,36.44
2022-09-28T08:39:26.289Z,35.96
2022-09-28T08:42:21.099Z,34.80
2022-09-28T08:45:19.867Z,34.72
2022-09-28T08:48:30.745Z,33.86
2022-09-28T08:51:23.721Z,31.97
2022-09-28T08:54:39.073Z,32.51
2022-09-28T08:57:14.538Z,31.16
2022-09-28T08:59:58.499Z,32.87
2022-09-28T09:02:39.739Z,35.12
2022-09-28T09:05:20.923Z,35.62
2022-09-28T09:08:35.166Z,35.02
2022-09-28T09:11:27.269Z,33.87
2022-09-28T09:13:57.291Z,33.55
2022-09-28T09:16:40.785Z,33.99
2022-09-28T09:19:27.529Z,33.38
2022-09-28T09:22:46.546Z,34.34
2022-09-28T09:25:54.995Z,33.82
2022-09-28T09:28:35.428Z,33.84
2022-09-28T09:31:38.254Z,35.13
2022-09-28T09:34:41.552Z,35.72
2022-09-28T09:38:01.490Z,35.64
2022-09-28T09:44:28.153Z,34.75
2022-09-28T09:47:38.283Z,33.86
2022-09-28T09:50:30.210Z,31.66
2022-09-28T09:53:16.386Z,32.41
2022-09-28T09:55:51.068Z,32.62
2022-09-28T09:58:41.455Z,32.37
2022-09-28T10:01:29.410Z,33.05
2022-09-28T10:04:20.153Z,32.88
2022-09-28T10:06:49.939Z,33.28
2022-09-28T10:09:26.582Z,33.00
2022-09-28T10:11:56.826Z,33.75
2022-09-28T10:14:25.605Z,34.38
2022-09-28T10:17:02.531Z,34.68
2022-09-28T10:20:05.460Z,33.99
2022-09-28T10:23:02.200Z,33.20
2022-09-28T10:25:33.737Z,33.43
2022-09-28T10:28:03.207Z,33.75
2022-09-28T10:30:34.059Z,33.71
2022-09-28T10:33:02.595Z,33.34
2022-09-28T10:35:47.901Z,34.16
2022-09-28T10:38:18.959Z,34.41
2022-09-28T10:40:55.376Z,35.00
2022-09-28T10:44:06.455Z,33.80
2022-09-28T10:47:14.697Z,34.14
2022-09-28T10:49:47.283Z,35.01
2022-09-28T10:52:36.550Z,35.12
2022-09-28T10:55:33.720Z,35.21
2022-09-28T10:58:01.181Z,35.60
2022-09-28T11:00:43.345Z,33.39
2022-09-28T11:03:26.782Z,33.20
2022-09-28T11:06:00.572Z,33.50
2022-09-28T11:08:35.612Z,34.73
2022-09-28T11:11:13.931Z,35.13
2022-09-28T11:13:42.946Z,35.88
2022-09-28T11:16:23.521Z,35.00
2022-09-28T11:18:51.134Z,34.11
2022-09-28T11:21:26.680Z,34.35
2022-09-28T11:24:06.556Z,35.02
2022-09-28T11:26:41.051Z,34.22
2022-09-28T11:29:26.974Z,32.31
2022-09-28T11:32:43.280Z,31.22
2022-09-28T11:36:03.778Z,31.91
2022-09-28T11:38:50.923Z,33.56
2022-09-28T11:41:37.984Z,34.03
2022-09-28T11:44:33.679Z,33.03
2022-09-28T11:47:27.099Z,33.91
2022-09-28T11:50:01.337Z,34.43
2022-09-28T11:52:39.813Z,34.67
2022-09-28T11:55:33.364Z,34.46
2022-09-28T11:58:25.909Z,34.20
2022-09-28T12:01:08.436Z,34.55
2022-09-28T12:04:03.876Z,34.92
2022-09-28T12:06:41.195Z,36.04
2022-09-28T12:09:19.934Z,35.61
2022-09-28T12:12:10.199Z,34.09
2022-09-28T12:14:47.409Z,34.81
2022-09-28T12:17:23.520Z,34.49
2022-09-28T12:20:38.613Z,32.90
2022-09-28T12:23:14.358Z,34.29
2022-09-28T12:25:46.943Z,33.08
2022-09-28T12:28:25.677Z,33.25
2022-09-28T12:30:54.848Z,32.19
2022-09-28T12:33:21.835Z,33.44
2022-09-28T12:35:48.638Z,33.76
2022-09-28T12:38:31.011Z,34.13
2022-09-28T12:41:07.142Z,35.08
2022-09-28T12:43:55.553Z,35.65
2022-09-28T12:46:31.271Z,35.61
2022-09-28T12:50:33.421Z,35.03
2022-09-28T12:52:19.144Z,33.80
2022-09-28T12:54:54.894Z,33.94
2022-09-28T12:57:54.793Z,33.47
2022-09-28T13:00:24.766Z,34.84
2022-09-28T13:03:18.740Z,32.37
2022-09-28T13:05:57.902Z,33.74
2022-09-28T13:08:51.044Z,34.24
2022-09-28T13:11:44.116Z,34.09
2022-09-28T13:14:36.467Z,33.12
2022-09-28T13:17:22.031Z,34.12
2022-09-28T13:20:04.033Z,33.87
2022-09-28T13:22:30.887Z,32.23
2022-09-28T13:25:02.200Z,31.37
2022-09-28T13:27:40.649Z,31.62
2022-09-28T13:30:08.514Z,31.62
2022-09-28T13:32:38.994Z,32.02
2022-09-28T13:35:06.974Z,31.29
2022-09-28T13:37:34.839Z,31.61
2022-09-28T13:40:06.235Z,30.48
2022-09-28T13:42:45.280Z,30.72
2022-09-28T13:45:42.745Z,31.01
2022-09-28T13:48:20.627Z,31.29
2022-09-28T13:51:35.751Z,30.93
2022-09-28T13:54:21.066Z,30.99
2022-09-28T13:57:03.084Z,30.46
2022-09-28T13:59:32.486Z,29.99
2022-09-28T14:02:06.785Z,30.06
2022-09-28T14:04:57.249Z,29.59
2022-09-28T14:10:20.976Z,27.94
2022-09-28T14:12:51.409Z,27.34
2022-09-28T14:15:30.209Z,26.65
2022-09-28T14:18:33.640Z,26.04
2022-09-28T14:21:19.351Z,26.42
2022-09-28T14:24:11.237Z,26.48
2022-09-28T14:27:23.671Z,26.38
2022-09-28T14:30:25.814Z,26.27
2022-09-28T14:33:00.296Z,25.56
2022-09-28T14:35:40.416Z,25.18
2022-09-28T14:38:36.026Z,24.76
2022-09-28T14:41:10.104Z,24.37
2022-09-28T14:43:57.419Z,24.88
2022-09-28T14:46:34.046Z,24.49
2022-09-28T14:49:25.520Z,24.51
2022-09-28T14:51:55.998Z,24.66
2022-09-28T14:54:24.056Z,24.92
2022-09-28T14:56:54.280Z,25.14
2022-09-28T14:59:39.231Z,24.69
2022-09-28T15:02:19.336Z,24.37
2022-09-28T15:04:52.550Z,24.84
2022-09-28T15:07:42.383Z,24.96
2022-09-28T15:10:28.398Z,24.91
2022-09-28T15:12:57.248Z,24.32
2022-09-28T15:15:35.552Z,24.48
2022-09-28T15:18:44.038Z,24.55
2022-09-28T15:21:12.422Z,24.43
2022-09-28T15:23:41.910Z,24.22
2022-09-28T15:26:22.635Z,23.99
2022-09-28T15:28:49.725Z,23.82
2022-09-28T15:31:23.530Z,23.75
2022-09-28T15:34:09.162Z,23.50
2022-09-28T15:36:46.491Z,23.51
2022-09-28T15:39:21.078Z,23.54
2022-09-28T15:41:50.509Z,23.80
2022-09-28T15:44:35.367Z,23.59
2022-09-28T15:47:25.025Z,23.27
2022-09-28T15:52:56.546Z,22.61
2022-09-28T15:55:26.435Z,22.57
2022-09-28T15:58:16.677Z,22.73
2022-09-28T16:00:46.449Z,22.38
2022-09-28T16:03:16.118Z,21.91
2022-09-28T16:05:49.819Z,21.58
2022-09-28T16:08:37.061Z,21.68
2022-09-28T16:11:22.006Z,21.76
2022-09-28T16:14:02.866Z,22.08
2022-09-28T16:16:35.286Z,21.97
2022-09-28T16:19:03.676Z,21.74
2022-09-28T16:21:40.214Z,21.50
2022-09-28T16:24:08.672Z,21.19
2022-09-28T16:26:39.054Z,21.10
2022-09-28T16:29:25.992Z,20.79
2022-09-28T16:31:53.300Z,21.03
2022-09-28T16:34:24.890Z,21.58
2022-09-28T16:36:51.805Z,21.70
2022-09-28T16:39:19.848Z,21.52
2022-09-28T16:41:55.470Z,21.46
2022-09-28T16:44:28.520Z,21.46
2022-09-28T16:46:58.539Z,21.75
2022-09-28T16:49:26.413Z,21.83
2022-09-28T16:51:53.324Z,22.04
2022-09-28T16:54:40.769Z,22.31
2022-09-28T16:57:11.638Z,22.45
2022-09-28T16:59:38.694Z,22.25
2022-09-28T17:02:48.637Z,22.18
2022-09-28T17:05:07.315Z,22.28
2022-09-28T17:07:34.683Z,22.53
2022-09-28T17:10:01.681Z,22.17
2022-09-28T17:12:29.013Z,21.85
2022-09-28T17:14:56.037Z,22.14
2022-09-28T17:17:22.913Z,21.89
2022-09-28T17:19:49.764Z,21.67
2022-09-28T17:22:18.436Z,21.85
2022-09-28T17:24:46.229Z,22.03
2022-09-28T17:27:18.346Z,22.24
2022-09-28T17:29:45.500Z,22.22
2022-09-28T17:32:18.135Z,22.27
2022-09-28T17:34:51.527Z,22.09
2022-09-28T17:37:23.121Z,22.12
2022-09-28T17:39:49.947Z,22.00
2022-09-28T17:42:17.410Z,21.94
2022-09-28T17:44:44.309Z,21.63
2022-09-28T17:47:11.843Z,21.85
2022-09-28T17:49:39.025Z,21.59
2022-09-28T17:52:05.933Z,21.66
2022-09-28T17:54:33.972Z,21.75
2022-09-28T17:57:01.391Z,21.93
2022-09-28T17:59:28.889Z,22.04
2022-09-28T18:01:59.309Z,22.15
2022-09-28T18:04:50.683Z,22.02
2022-09-28T18:07:15.970Z,21.99
2022-09-28T18:09:42.912Z,21.95
2022-09-28T18:12:09.889Z,21.85
2022-09-28T18:14:37.089Z,21.87
2022-09-28T18:17:04.069Z,21.69
2022-09-28T18:19:32.302Z,21.67
2022-09-28T18:21:59.561Z,21.82
2022-09-28T18:24:26.720Z,21.82
2022-09-28T18:26:53.789Z,21.84
2022-09-28T18:29:20.670Z,21.74
2022-09-28T18:31:48.919Z,21.79
2022-09-28T18:34:15.934Z,21.64
2022-09-28T18:36:42.910Z,21.47
2022-09-28T18:39:09.812Z,21.32
2022-09-28T18:41:36.900Z,21.20
2022-09-28T18:44:03.794Z,21.05
2022-09-28T18:46:36.873Z,21.07
2022-09-28T18:49:04.777Z,21.22
2022-09-28T18:51:31.727Z,21.23
2022-09-28T18:53:58.635Z,21.26
2022-09-28T18:56:26.979Z,21.22
2022-09-28T18:58:54.118Z,21.29
2022-09-28T19:01:30.360Z,21.24
2022-09-28T19:04:02.167Z,21.04
2022-09-28T19:06:29.926Z,20.83
2022-09-28T19:08:57.034Z,20.83
2022-09-28T19:11:24.966Z,20.84
2022-09-28T19:13:53.437Z,20.79
2022-09-28T19:16:26.056Z,20.87
2022-09-28T19:18:53.876Z,21.01
2022-09-28T19:21:21.171Z,21.03
2022-09-28T19:23:49.828Z,20.98
2022-09-28T19:26:21.105Z,21.04
2022-09-28T19:28:49.014Z,21.11
2022-09-28T19:31:16.870Z,20.68
2022-09-28T19:33:46.583Z,20.11
2022-09-28T19:36:19.961Z,19.66
2022-09-28T19:38:46.860Z,19.62
2022-09-28T19:41:39.287Z,19.80
2022-09-28T19:44:21.292Z,19.94
2022-09-28T19:46:48.273Z,20.16
2022-09-28T19:49:19.757Z,20.29
2022-09-28T19:54:38.259Z,20.44
2022-09-28T19:57:08.110Z,20.45
2022-09-28T19:59:36.836Z,20.28
2022-09-28T20:02:06.090Z,20.25
2022-09-28T20:04:33.308Z,20.05
2022-09-28T20:07:00.246Z,20.15
2022-09-28T20:09:27.208Z,20.36
2022-09-28T20:11:54.427Z,20.13
2022-09-28T20:14:23.418Z,20.18
2022-09-28T20:16:52.891Z,19.90
2022-09-28T20:19:21.727Z,20.04
2022-09-28T20:21:49.145Z,19.98
2022-09-28T20:24:18.741Z,19.84
2022-09-28T20:26:46.154Z,19.62
2022-09-28T20:29:13.495Z,19.76
2022-09-28T20:31:40.673Z,19.25
2022-09-28T20:34:07.960Z,18.86
2022-09-28T20:36:35.038Z,19.06
2022-09-28T20:39:04.363Z,19.31
2022-09-28T20:41:36.922Z,19.57
2022-09-28T20:44:06.330Z,19.78
2022-09-28T20:46:35.382Z,19.64
2022-09-28T20:49:02.925Z,19.71
2022-09-28T20:51:29.861Z,19.59
2022-09-28T20:53:58.946Z,19.48
2022-09-28T20:56:28.446Z,19.53
2022-09-28T20:58:55.668Z,19.63
2022-09-28T21:01:25.448Z,19.78
2022-09-28T21:03:59.704Z,19.81
2022-09-28T21:06:31.770Z,20.09
2022-09-28T21:08:59.128Z,20.02
2022-09-28T21:11:28.197Z,19.59
2022-09-28T21:14:00.316Z,19.81
2022-09-28T21:16:29.109Z,19.35
2022-09-28T21:18:56.051Z,19.21
2022-09-28T21:21:24.449Z,19.15
2022-09-28T21:23:56.158Z,19.30
2022-09-28T21:26:25.662Z,19.53
2022-09-28T21:29:03.841Z,19.63
2022-09-28T21:31:37.187Z,19.39
2022-09-28T21:34:05.228Z,19.46
2022-09-28T21:36:33.058Z,19.19
2022-09-28T21:38:59.986Z,17.92
2022-09-28T21:41:26.918Z,17.56
2022-09-28T21:43:53.837Z,17.63
2022-09-28T21:46:20.945Z,18.17
2022-09-28T21:48:52.494Z,18.38
2022-09-28T21:51:19.829Z,18.65
2022-09-28T21:53:48.544Z,18.80
2022-09-28T21:56:15.446Z,19.06
2022-09-28T21:58:42.317Z,19.24
2022-09-28T22:01:18.322Z,19.44
2022-09-28T22:03:51.195Z,19.06
2022-09-28T22:06:20.475Z,18.95
2022-09-28T22:08:48.665Z,18.91
2022-09-28T22:11:18.814Z,18.96
2022-09-28T22:13:46.894Z,19.05
2022-09-28T22:16:16.614Z,19.13
2022-09-28T22:18:44.628Z,19.43
2022-09-28T22:21:22.856Z,19.48
2022-09-28T22:23:50.225Z,19.12
2022-09-28T22:26:25.252Z,18.75
2022-09-28T22:29:02.944Z,18.33
2022-09-28T22:31:33.315Z,18.02
2022-09-28T22:34:00.808Z,18.00
2022-09-28T22:36:28.549Z,18.42
2022-09-28T22:38:56.824Z,18.64
2022-09-28T22:41:25.033Z,18.90
2022-09-28T22:43:53.410Z,19.09
2022-09-28T22:46:23.685Z,18.57
2022-09-28T22:48:53.772Z,18.45
2022-09-28T22:51:21.638Z,18.51
2022-09-28T22:53:48.558Z,18.47
2022-09-28T22:56:18.682Z,18.61
2022-09-28T22:58:46.510Z,18.57
2022-09-28T23:01:19.826Z,18.60
2022-09-28T23:03:47.563Z,18.76
2022-09-28T23:06:16.706Z,18.91
2022-09-28T23:08:44.849Z,19.15
2022-09-28T23:11:11.754Z,19.08
2022-09-28T23:13:39.085Z,18.72
2022-09-28T23:16:08.178Z,18.77
2022-09-28T23:18:37.327Z,18.60
2022-09-28T23:21:06.623Z,18.37
2022-09-28T23:23:34.595Z,18.28
2022-09-28T23:26:14.207Z,18.03
2022-09-28T23:28:41.172Z,18.21
2022-09-28T23:31:19.902Z,18.05
2022-09-28T23:33:47.115Z,18.13
2022-09-28T23:36:14.884Z,18.37
2022-09-28T23:38:41.804Z,18.35
2022-09-28T23:41:09.395Z,18.26
2022-09-28T23:43:36.440Z,18.28
2022-09-28T23:46:04.865Z,18.41
2022-09-28T23:48:32.429Z,18.52
2022-09-28T23:50:59.559Z,18.71
2022-09-28T23:53:26.939Z,18.79
2022-09-28T23:55:54.388Z,18.86
2022-09-28T23:58:21.713Z,18.80
